Time;durP1;ratioP1;P1;durP2;ratioP2;P2;SDS_P1;SDS_P2;PMS_P1;PMS_P2;Temp;Humidity;BMP_temperature;BMP_pressure;BME280_temperature;BME280_humidity;BME280_pressure;Samples;Min_cycle;Max_cycle;Signal;HPM_P1;HPM_P2
2023/01/26 00:01:17;;;;;;;34.83;9.73;;;;;;;;;;5064039;28;20213;-81
2023/01/26 00:03:43;;;;;;;22.73;8.33;;;;;;;;;;5068880;28;20260;-81
2023/01/26 00:06:09;;;;;;;47.93;10.67;;;;;;;;;;5065303;28;20283;-81
2023/01/26 00:08:35;;;;;;;62.13;10.67;;;;;;;;;;5063807;28;20185;-81
2023/01/26 00:11:02;;;;;;;59.90;10.37;;;;;;;;;;5066648;28;20243;-81
2023/01/26 00:13:27;;;;;;;65.40;10.30;;;;;;;;;;5070200;28;20202;-81
2023/01/26 00:15:52;;;;;;;25.67;9.10;;;;;;;;;;5061279;28;20194;-81
2023/01/26 00:18:17;;;;;;;44.63;9.50;;;;;;;;;;5064145;28;20181;-81
2023/01/26 00:20:43;;;;;;;50.93;10.47;;;;;;;;;;5067948;28;20178;-81
2023/01/26 00:23:08;;;;;;;72.43;9.53;;;;;;;;;;5064991;28;20173;-81
2023/01/26 00:25:33;;;;;;;41.20;10.30;;;;;;;;;;5064442;28;20189;-81
2023/01/26 00:27:58;;;;;;;17.87;9.63;;;;;;;;;;5066403;28;20193;-81
2023/01/26 00:30:23;;;;;;;31.67;9.47;;;;;;;;;;5066020;28;20260;-81
2023/01/26 00:32:49;;;;;;;38.30;10.07;;;;;;;;;;5064661;28;20233;-81
2023/01/26 00:35:14;;;;;;;19.73;9.13;;;;;;;;;;5066495;28;20439;-81
2023/01/26 00:37:42;;;;;;;31.20;9.13;;;;;;;;;;5071131;28;20253;-81
2023/01/26 00:40:08;;;;;;;17.80;8.60;;;;;;;;;;5061589;28;20182;-81
2023/01/26 00:42:33;;;;;;;22.43;9.17;;;;;;;;;;5064729;28;20173;-82
2023/01/26 00:44:58;;;;;;;17.90;9.30;;;;;;;;;;5065795;28;20188;-81
2023/01/26 00:47:23;;;;;;;18.30;8.70;;;;;;;;;;5064502;28;20188;-81
2023/01/26 00:49:49;;;;;;;19.80;7.07;;;;;;;;;;5059124;28;20190;-81
2023/01/26 00:52:14;;;;;;;21.43;9.53;;;;;;;;;;5060087;28;20170;-81
2023/01/26 00:54:40;;;;;;;18.10;9.00;;;;;;;;;;5065671;28;20185;-81
2023/01/26 00:57:05;;;;;;;14.37;7.80;;;;;;;;;;5059095;28;20212;-81
2023/01/26 00:59:31;;;;;;;16.70;7.83;;;;;;;;;;5061235;28;20253;-81
2023/01/26 01:01:57;;;;;;;16.33;8.27;;;;;;;;;;5059091;28;20173;-81
2023/01/26 01:04:22;;;;;;;32.73;9.07;;;;;;;;;;5068528;28;20231;-81
2023/01/26 01:06:47;;;;;;;31.87;9.53;;;;;;;;;;5064632;28;20208;-81
2023/01/26 01:09:12;;;;;;;18.13;9.17;;;;;;;;;;5064237;28;20184;-81
2023/01/26 01:11:38;;;;;;;23.33;7.83;;;;;;;;;;5065193;28;20226;-81
2023/01/26 01:14:03;;;;;;;27.07;9.27;;;;;;;;;;5068283;28;20316;-81
2023/01/26 01:16:29;;;;;;;28.63;8.87;;;;;;;;;;5066430;28;20469;-81
2023/01/26 01:18:55;;;;;;;14.77;8.00;;;;;;;;;;5057900;28;20204;-81
2023/01/26 01:21:20;;;;;;;17.73;8.27;;;;;;;;;;5068172;28;20201;-81
2023/01/26 01:23:45;;;;;;;15.70;8.23;;;;;;;;;;5058203;28;20192;-81
2023/01/26 01:26:11;;;;;;;18.90;7.73;;;;;;;;;;5067943;28;20190;-81
2023/01/26 01:28:37;;;;;;;18.63;8.00;;;;;;;;;;5068497;28;20176;-81
2023/01/26 01:31:06;;;;;;;16.97;7.73;;;;;;;;;;5059948;28;20223;-81
2023/01/26 01:33:31;;;;;;;17.47;8.40;;;;;;;;;;5062471;28;20181;-81
2023/01/26 01:35:57;;;;;;;15.97;7.77;;;;;;;;;;5068594;28;20193;-81
2023/01/26 01:38:23;;;;;;;15.73;8.90;;;;;;;;;;5068952;28;20236;-81
2023/01/26 01:40:48;;;;;;;12.23;7.80;;;;;;;;;;5064570;28;20189;-81
2023/01/26 01:43:13;;;;;;;15.70;8.40;;;;;;;;;;5068145;28;20181;-81
2023/01/26 01:45:40;;;;;;;15.33;7.40;;;;;;;;;;5061920;28;20178;-81
2023/01/26 01:48:11;;;;;;;17.70;8.03;;;;;;;;;;5060559;28;20169;-81
2023/01/26 01:50:38;;;;;;;14.13;7.67;;;;;;;;;;5063156;28;20204;-81
2023/01/26 01:53:04;;;;;;;14.60;7.83;;;;;;;;;;5056995;28;20184;-81
2023/01/26 01:55:29;;;;;;;15.00;8.57;;;;;;;;;;5065020;28;20197;-81
2023/01/26 01:57:57;;;;;;;17.27;8.53;;;;;;;;;;5063852;28;20169;-81
2023/01/26 02:00:23;;;;;;;19.27;7.77;;;;;;;;;;5066848;28;20184;-81
2023/01/26 02:03:09;;;;;;;19.67;9.37;;;;;;;;;;5065510;28;20180;-81
2023/01/26 02:05:39;;;;;;;18.77;9.20;;;;;;;;;;5058999;28;20186;-81
2023/01/26 02:08:05;;;;;;;16.43;8.23;;;;;;;;;;5066695;28;20328;-81
2023/01/26 02:10:31;;;;;;;11.10;7.10;;;;;;;;;;5056672;28;20236;-81
2023/01/26 02:12:59;;;;;;;11.47;6.60;;;;;;;;;;5064955;28;20203;-81
2023/01/26 02:15:25;;;;;;;16.50;9.27;;;;;;;;;;5059694;28;20278;-81
2023/01/26 02:17:51;;;;;;;12.60;7.30;;;;;;;;;;5061935;28;20205;-81
2023/01/26 02:20:27;;;;;;;13.50;7.63;;;;;;;;;;5064797;28;20253;-81
2023/01/26 02:23:07;;;;;;;12.37;7.00;;;;;;;;;;5061703;28;20177;-81
2023/01/26 02:25:39;;;;;;;15.30;7.93;;;;;;;;;;5060088;28;20189;-81
2023/01/26 02:28:04;;;;;;;11.73;6.57;;;;;;;;;;5081896;28;20181;-81
2023/01/26 02:30:30;;;;;;;14.43;8.27;;;;;;;;;;5058446;28;20184;-81
2023/01/26 02:32:55;;;;;;;14.37;7.73;;;;;;;;;;5059649;28;20185;-81
2023/01/26 02:35:20;;;;;;;16.20;8.30;;;;;;;;;;5054424;28;20205;-81
2023/01/26 02:37:46;;;;;;;13.70;7.27;;;;;;;;;;5060146;28;20173;-81
2023/01/26 02:40:34;;;;;;;13.03;7.20;;;;;;;;;;5065724;28;20175;-81
2023/01/26 02:43:01;;;;;;;12.53;7.53;;;;;;;;;;5067244;28;20322;-81
2023/01/26 02:45:26;;;;;;;13.67;7.67;;;;;;;;;;5066216;28;20174;-81
2023/01/26 02:47:52;;;;;;;15.80;7.20;;;;;;;;;;5067431;28;20188;-81
2023/01/26 02:50:17;;;;;;;14.07;7.50;;;;;;;;;;5070040;28;20189;-81
2023/01/26 02:52:43;;;;;;;14.37;7.73;;;;;;;;;;5069564;28;20174;-81
2023/01/26 02:55:27;;;;;;;16.37;8.37;;;;;;;;;;5067859;28;20224;-81
2023/01/26 02:57:54;;;;;;;12.07;7.10;;;;;;;;;;5060041;28;20193;-81
2023/01/26 03:00:24;;;;;;;10.77;6.20;;;;;;;;;;5071743;28;20176;-81
2023/01/26 03:02:50;;;;;;;17.47;7.67;;;;;;;;;;5069631;28;20170;-81
2023/01/26 03:05:15;;;;;;;12.90;7.67;;;;;;;;;;5062035;28;20185;-81
2023/01/26 03:07:40;;;;;;;13.90;8.30;;;;;;;;;;5059052;28;20174;-81
2023/01/26 03:10:06;;;;;;;14.93;7.93;;;;;;;;;;5063720;28;20205;-81
2023/01/26 03:12:31;;;;;;;11.17;7.13;;;;;;;;;;5062545;28;20243;-81
2023/01/26 03:17:40;;;;;;;11.80;6.57;;;;;;;;;;5071259;28;20433;-81
2023/01/26 03:28:22;;;;;;;13.50;7.80;;;;;;;;;;5067337;28;20261;-81
2023/01/26 03:30:48;;;;;;;14.43;8.23;;;;;;;;;;5064600;28;20170;-81
2023/01/26 03:33:13;;;;;;;12.40;7.77;;;;;;;;;;5070086;28;20183;-80
2023/01/26 03:35:38;;;;;;;14.60;8.00;;;;;;;;;;5069565;28;20208;-81
2023/01/26 03:38:03;;;;;;;16.70;8.53;;;;;;;;;;5065422;28;20208;-81
2023/01/26 03:56:52;;;;;;;13.80;8.23;;;;;;;;;;5063784;28;20216;-81
2023/01/26 03:59:36;;;;;;;12.90;7.60;;;;;;;;;;5059192;28;20185;-81
2023/01/26 04:10:13;;;;;;;11.63;6.40;;;;;;;;;;5061878;28;20230;-81
2023/01/26 04:12:39;;;;;;;15.03;7.60;;;;;;;;;;5064028;28;20193;-81
2023/01/26 04:23:17;;;;;;;16.50;7.23;;;;;;;;;;5068255;28;20183;-81
2023/01/26 04:25:43;;;;;;;14.43;8.13;;;;;;;;;;5066103;28;20185;-81
2023/01/26 04:28:08;;;;;;;13.23;7.47;;;;;;;;;;5067436;28;20181;-81
2023/01/26 04:30:33;;;;;;;15.20;7.47;;;;;;;;;;5062960;28;20182;-81
2023/01/26 04:32:58;;;;;;;13.40;7.83;;;;;;;;;;5066560;28;20233;-81
2023/01/26 04:35:23;;;;;;;16.70;8.17;;;;;;;;;;5063546;28;20204;-81
2023/01/26 04:37:49;;;;;;;20.83;10.27;;;;;;;;;;5066776;28;20192;-81
2023/01/26 04:40:14;;;;;;;18.10;8.10;;;;;;;;;;5066917;28;20337;-81
2023/01/26 04:42:39;;;;;;;15.33;7.10;;;;;;;;;;5060840;28;20176;-81
2023/01/26 04:45:04;;;;;;;18.97;9.40;;;;;;;;;;5066818;28;20245;-81
2023/01/26 04:47:30;;;;;;;14.10;8.27;;;;;;;;;;5057429;28;20185;-81
2023/01/26 04:49:55;;;;;;;20.00;8.13;;;;;;;;;;5069329;28;20177;-81
2023/01/26 04:52:20;;;;;;;18.80;8.73;;;;;;;;;;5059350;28;20179;-81
2023/01/26 04:54:45;;;;;;;21.33;9.23;;;;;;;;;;5062906;28;20230;-81
2023/01/26 04:57:10;;;;;;;16.83;7.70;;;;;;;;;;5060914;28;20232;-81
2023/01/26 04:59:36;;;;;;;13.43;7.83;;;;;;;;;;5064518;28;20176;-80
2023/01/26 05:02:01;;;;;;;19.83;9.93;;;;;;;;;;5066281;28;20177;-81
2023/01/26 05:04:26;;;;;;;15.50;8.77;;;;;;;;;;5063713;28;20185;-81
2023/01/26 05:06:51;;;;;;;14.40;8.67;;;;;;;;;;5060065;28;20177;-81
2023/01/26 05:09:17;;;;;;;14.77;7.80;;;;;;;;;;5064322;28;20268;-81
2023/01/26 05:11:42;;;;;;;12.27;7.67;;;;;;;;;;5063581;28;20222;-81
2023/01/26 05:14:07;;;;;;;10.63;7.17;;;;;;;;;;5069040;28;20173;-81
2023/01/26 05:16:32;;;;;;;12.67;5.80;;;;;;;;;;5060545;28;20190;-80
2023/01/26 05:18:58;;;;;;;14.37;6.40;;;;;;;;;;5068576;28;20172;-80
2023/01/26 05:21:24;;;;;;;13.07;7.77;;;;;;;;;;5061511;28;20279;-81
2023/01/26 05:23:49;;;;;;;12.00;6.20;;;;;;;;;;5063395;28;20183;-80
2023/01/26 05:26:14;;;;;;;12.67;7.37;;;;;;;;;;5064407;28;20180;-81
2023/01/26 05:28:39;;;;;;;14.43;8.17;;;;;;;;;;5065682;28;20180;-81
2023/01/26 05:31:04;;;;;;;14.43;8.43;;;;;;;;;;5069923;28;20173;-81
2023/01/26 05:33:30;;;;;;;16.07;6.97;;;;;;;;;;5055659;28;20172;-81
2023/01/26 05:35:55;;;;;;;13.77;7.30;;;;;;;;;;5062903;28;20355;-81
2023/01/26 05:38:20;;;;;;;16.37;7.97;;;;;;;;;;5065483;28;20229;-81
2023/01/26 05:40:45;;;;;;;12.20;7.30;;;;;;;;;;5065464;28;20180;-81
2023/01/26 05:43:11;;;;;;;16.00;8.20;;;;;;;;;;5060957;28;20283;-81
2023/01/26 05:45:37;;;;;;;17.20;7.53;;;;;;;;;;5074100;28;20283;-81
2023/01/26 05:48:02;;;;;;;10.57;6.37;;;;;;;;;;5061429;28;20223;-81
2023/01/26 05:50:27;;;;;;;14.57;7.63;;;;;;;;;;5063477;28;20180;-80
2023/01/26 05:52:53;;;;;;;16.37;7.07;;;;;;;;;;5064355;28;20188;-81
2023/01/26 05:55:18;;;;;;;14.27;6.10;;;;;;;;;;5059617;28;20204;-81
2023/01/26 05:57:43;;;;;;;10.13;6.63;;;;;;;;;;5066729;28;20175;-81
2023/01/26 06:00:09;;;;;;;12.03;6.80;;;;;;;;;;5063043;28;20184;-81
2023/01/26 06:02:34;;;;;;;12.80;6.83;;;;;;;;;;5047422;28;20177;-81
2023/01/26 06:05:00;;;;;;;8.20;3.50;;;;;;;;;;5064465;28;20185;-81
2023/01/26 06:07:28;;;;;;;9.40;5.20;;;;;;;;;;5068264;28;20187;-82
2023/01/26 06:09:53;;;;;;;8.63;5.33;;;;;;;;;;5061352;28;20196;-81
2023/01/26 06:12:19;;;;;;;12.27;6.50;;;;;;;;;;5063765;28;20271;-82
2023/01/26 06:14:45;;;;;;;11.00;6.27;;;;;;;;;;5064291;28;20175;-82
2023/01/26 06:17:11;;;;;;;9.97;5.60;;;;;;;;;;5059322;28;20220;-82
2023/01/26 06:19:36;;;;;;;11.17;5.70;;;;;;;;;;5066366;28;20176;-81
2023/01/26 06:22:02;;;;;;;9.20;5.57;;;;;;;;;;5068774;28;20176;-81
2023/01/26 06:24:27;;;;;;;10.17;5.63;;;;;;;;;;5072084;28;20193;-82
2023/01/26 06:26:52;;;;;;;10.33;5.90;;;;;;;;;;5070845;28;20183;-82
2023/01/26 06:29:18;;;;;;;10.87;5.80;;;;;;;;;;5071135;28;20176;-82
2023/01/26 06:31:43;;;;;;;9.70;5.43;;;;;;;;;;5071573;28;20180;-82
2023/01/26 06:34:09;;;;;;;14.33;6.23;;;;;;;;;;5070147;28;20202;-82
2023/01/26 06:36:34;;;;;;;13.37;7.17;;;;;;;;;;5065427;28;20204;-81
2023/01/26 06:39:00;;;;;;;13.33;7.10;;;;;;;;;;5067702;28;20188;-81
2023/01/26 06:41:25;;;;;;;13.70;10.20;;;;;;;;;;5069798;28;20180;-81
2023/01/26 06:43:50;;;;;;;9.93;5.47;;;;;;;;;;5066519;28;20270;-82
2023/01/26 06:46:16;;;;;;;11.20;6.13;;;;;;;;;;5071606;28;20176;-82
2023/01/26 06:48:41;;;;;;;11.97;6.37;;;;;;;;;;5058913;28;20184;-81
2023/01/26 06:51:19;;;;;;;12.97;6.73;;;;;;;;;;5071634;28;20176;-82
2023/01/26 06:53:51;;;;;;;11.47;6.63;;;;;;;;;;5064978;28;20187;-81
2023/01/26 06:56:16;;;;;;;11.40;6.90;;;;;;;;;;5061196;28;20208;-81
2023/01/26 06:58:41;;;;;;;13.20;8.23;;;;;;;;;;5065399;28;20183;-82
2023/01/26 07:01:08;;;;;;;13.73;6.53;;;;;;;;;;5070158;28;20237;-82
2023/01/26 07:03:33;;;;;;;11.50;7.37;;;;;;;;;;5062618;28;20184;-82
2023/01/26 07:05:59;;;;;;;15.93;9.63;;;;;;;;;;5065883;28;20175;-81
2023/01/26 07:08:24;;;;;;;18.27;8.87;;;;;;;;;;5070893;28;20188;-82
2023/01/26 07:10:49;;;;;;;20.20;11.77;;;;;;;;;;5069682;28;20329;-82
2023/01/26 07:13:14;;;;;;;19.50;11.97;;;;;;;;;;5064228;28;20181;-82
2023/01/26 07:15:41;;;;;;;14.67;7.63;;;;;;;;;;5048893;28;20281;-81
2023/01/26 07:18:06;;;;;;;8.47;5.77;;;;;;;;;;5067404;28;20185;-82
2023/01/26 07:20:31;;;;;;;11.10;6.33;;;;;;;;;;5067514;28;20267;-81
2023/01/26 07:23:00;;;;;;;10.23;6.80;;;;;;;;;;5067042;28;20175;-82
2023/01/26 07:25:25;;;;;;;8.47;5.37;;;;;;;;;;5069711;28;20575;-81
2023/01/26 07:27:54;;;;;;;11.87;6.50;;;;;;;;;;5063898;28;20246;-82
2023/01/26 07:30:20;;;;;;;12.00;7.27;;;;;;;;;;5067022;28;20212;-82
2023/01/26 07:32:45;;;;;;;15.50;7.10;;;;;;;;;;5065602;28;20213;-81
2023/01/26 07:35:10;;;;;;;12.93;7.97;;;;;;;;;;5067232;28;20190;-82
2023/01/26 07:37:35;;;;;;;14.87;8.30;;;;;;;;;;5064411;28;20180;-81
2023/01/26 07:40:01;;;;;;;16.07;8.37;;;;;;;;;;5060815;28;20267;-81
2023/01/26 07:42:26;;;;;;;12.43;6.33;;;;;;;;;;5064027;28;20177;-81
2023/01/26 07:44:51;;;;;;;14.87;7.63;;;;;;;;;;5062499;28;20182;-82
2023/01/26 07:47:18;;;;;;;16.63;9.13;;;;;;;;;;5056083;28;20185;-82
2023/01/26 07:49:45;;;;;;;15.03;8.33;;;;;;;;;;5063403;28;20188;-82
2023/01/26 07:52:11;;;;;;;13.10;7.83;;;;;;;;;;5071478;28;20212;-81
2023/01/26 07:54:37;;;;;;;15.33;8.33;;;;;;;;;;5063207;28;20220;-82
2023/01/26 07:57:02;;;;;;;20.17;9.07;;;;;;;;;;5060004;28;20211;-81
2023/01/26 07:59:27;;;;;;;17.57;9.03;;;;;;;;;;5063762;28;20184;-81
2023/01/26 08:01:52;;;;;;;16.60;9.00;;;;;;;;;;5060273;28;20255;-81
2023/01/26 08:04:18;;;;;;;13.80;8.20;;;;;;;;;;5062245;28;20235;-82
2023/01/26 08:06:43;;;;;;;14.60;7.87;;;;;;;;;;5061618;28;20187;-81
2023/01/26 08:09:08;;;;;;;19.83;7.40;;;;;;;;;;5060615;28;20196;-82
2023/01/26 08:11:33;;;;;;;17.27;7.63;;;;;;;;;;5062075;28;20266;-81
2023/01/26 08:13:59;;;;;;;16.00;8.33;;;;;;;;;;5062839;28;20203;-81
2023/01/26 08:16:24;;;;;;;16.00;8.83;;;;;;;;;;5066437;28;20203;-82
2023/01/26 08:18:49;;;;;;;49.60;10.27;;;;;;;;;;5066680;28;20177;-81
2023/01/26 08:21:15;;;;;;;23.70;9.07;;;;;;;;;;5067478;28;20175;-81
2023/01/26 08:23:40;;;;;;;23.27;8.73;;;;;;;;;;5065002;28;20183;-82
2023/01/26 08:26:10;;;;;;;15.73;7.50;;;;;;;;;;5069558;28;20181;-81
2023/01/26 08:28:36;;;;;;;18.30;8.27;;;;;;;;;;5064139;28;20177;-81
2023/01/26 08:31:05;;;;;;;15.47;7.83;;;;;;;;;;5070777;28;20188;-81
2023/01/26 08:33:31;;;;;;;19.57;10.60;;;;;;;;;;5069188;28;20188;-82
2023/01/26 08:36:01;;;;;;;14.37;8.63;;;;;;;;;;5068504;28;20223;-81
2023/01/26 08:38:26;;;;;;;19.33;9.13;;;;;;;;;;5065086;28;20195;-82
2023/01/26 08:40:52;;;;;;;17.60;9.13;;;;;;;;;;5066161;28;20180;-81
2023/01/26 08:43:17;;;;;;;16.80;8.87;;;;;;;;;;5065600;28;20204;-81
2023/01/26 08:45:45;;;;;;;20.77;9.40;;;;;;;;;;5057666;28;20215;-82
2023/01/26 08:48:11;;;;;;;28.37;10.37;;;;;;;;;;5067090;28;20202;-81
2023/01/26 08:50:36;;;;;;;14.60;8.57;;;;;;;;;;5058319;28;20178;-81
2023/01/26 08:53:01;;;;;;;23.17;9.03;;;;;;;;;;5064511;28;20216;-81
2023/01/26 08:55:27;;;;;;;33.80;12.63;;;;;;;;;;5061711;28;20251;-81
2023/01/26 08:57:53;;;;;;;19.57;9.90;;;;;;;;;;5067777;28;20171;-82
2023/01/26 09:00:19;;;;;;;24.03;8.17;;;;;;;;;;5056262;28;20181;-81
2023/01/26 09:02:44;;;;;;;56.10;11.17;;;;;;;;;;5066088;28;20179;-81
2023/01/26 09:05:10;;;;;;;25.90;10.23;;;;;;;;;;5055959;28;20177;-82
2023/01/26 09:07:35;;;;;;;19.90;10.33;;;;;;;;;;5064914;28;20248;-81
2023/01/26 09:10:00;;;;;;;20.03;9.50;;;;;;;;;;5065003;28;20203;-81
2023/01/26 09:12:25;;;;;;;24.33;9.37;;;;;;;;;;5058388;28;20258;-82
2023/01/26 09:14:51;;;;;;;23.73;9.50;;;;;;;;;;5060733;28;20195;-81
2023/01/26 09:17:16;;;;;;;16.87;8.47;;;;;;;;;;5064823;28;20226;-82
2023/01/26 09:19:41;;;;;;;23.73;8.80;;;;;;;;;;5061763;28;20224;-81
2023/01/26 09:22:06;;;;;;;25.63;12.27;;;;;;;;;;5069518;28;20179;-81
2023/01/26 09:24:31;;;;;;;21.87;11.37;;;;;;;;;;5061655;28;20188;-82
2023/01/26 09:26:57;;;;;;;23.57;9.23;;;;;;;;;;5063885;28;20187;-82
2023/01/26 09:29:22;;;;;;;18.67;9.60;;;;;;;;;;5059602;28;20183;-82
2023/01/26 09:31:47;;;;;;;24.13;10.40;;;;;;;;;;5067491;28;20181;-81
2023/01/26 09:34:12;;;;;;;28.17;10.43;;;;;;;;;;5058558;28;20243;-82
2023/01/26 09:36:37;;;;;;;24.40;10.43;;;;;;;;;;5063687;28;20208;-81
2023/01/26 09:39:03;;;;;;;17.37;7.87;;;;;;;;;;5064898;28;20175;-82
2023/01/26 09:41:31;;;;;;;22.47;10.80;;;;;;;;;;5061997;28;20176;-81
2023/01/26 09:43:58;;;;;;;16.97;8.00;;;;;;;;;;5065533;28;20176;-81
2023/01/26 09:46:26;;;;;;;11.40;6.17;;;;;;;;;;5061474;28;20191;-81
2023/01/26 09:48:51;;;;;;;20.40;11.17;;;;;;;;;;5078576;28;20183;-82
2023/01/26 09:51:24;;;;;;;24.60;9.80;;;;;;;;;;5062477;28;20198;-81
2023/01/26 09:54:14;;;;;;;18.33;9.43;;;;;;;;;;5057641;28;20219;-82
2023/01/26 09:56:40;;;;;;;23.07;7.27;;;;;;;;;;5050928;28;20230;-82
2023/01/26 09:59:21;;;;;;;19.07;10.43;;;;;;;;;;5065111;28;20183;-81
2023/01/26 10:01:52;;;;;;;20.90;10.47;;;;;;;;;;5069825;28;20217;-82
2023/01/26 10:04:23;;;;;;;24.47;10.57;;;;;;;;;;5072092;28;20266;-81
2023/01/26 10:06:51;;;;;;;42.80;10.90;;;;;;;;;;5073055;28;20175;-82
2023/01/26 10:09:20;;;;;;;29.67;10.80;;;;;;;;;;5068307;28;20168;-81
2023/01/26 10:11:48;;;;;;;17.87;8.90;;;;;;;;;;5070497;28;20309;-82
2023/01/26 10:14:32;;;;;;;29.60;10.27;;;;;;;;;;5064850;28;20188;-81
2023/01/26 10:16:58;;;;;;;30.17;8.73;;;;;;;;;;5060138;28;20207;-81
2023/01/26 10:19:25;;;;;;;66.17;10.97;;;;;;;;;;5069586;28;20209;-81
2023/01/26 10:21:52;;;;;;;43.47;11.00;;;;;;;;;;5070649;28;20210;-82
2023/01/26 10:24:20;;;;;;;37.30;10.20;;;;;;;;;;5071289;28;20258;-82
2023/01/26 10:26:46;;;;;;;43.67;11.20;;;;;;;;;;5063281;28;20187;-82
2023/01/26 10:29:14;;;;;;;25.83;8.20;;;;;;;;;;5068475;28;20176;-82
2023/01/26 10:31:40;;;;;;;31.70;10.43;;;;;;;;;;5064614;28;20180;-82
2023/01/26 10:34:16;;;;;;;9.47;4.30;;;;;;;;;;5063253;28;20184;-81
2023/01/26 10:36:45;;;;;;;58.40;8.97;;;;;;;;;;5072665;28;20294;-82
2023/01/26 10:39:11;;;;;;;81.33;10.90;;;;;;;;;;5062212;28;20282;-82
2023/01/26 10:41:38;;;;;;;63.00;11.20;;;;;;;;;;5066105;28;20185;-81
2023/01/26 10:44:19;;;;;;;63.53;9.40;;;;;;;;;;5069664;28;20217;-81
2023/01/26 10:46:44;;;;;;;44.40;7.17;;;;;;;;;;5076968;28;20199;-82
2023/01/26 10:49:13;;;;;;;81.37;12.17;;;;;;;;;;5064538;28;20243;-82
2023/01/26 10:51:40;;;;;;;4.17;2.47;;;;;;;;;;5065300;28;20572;-81
2023/01/26 10:54:12;;;;;;;13.67;6.30;;;;;;;;;;5062472;28;20253;-82
2023/01/26 10:56:42;;;;;;;29.53;6.87;;;;;;;;;;5081138;28;20287;-81
2023/01/26 10:59:07;;;;;;;12.43;4.10;;;;;;;;;;5064673;28;20206;-82
2023/01/26 11:01:49;;;;;;;10.20;5.70;;;;;;;;;;5058989;28;20208;-82
2023/01/26 11:04:15;;;;;;;67.30;9.57;;;;;;;;;;5082855;28;20278;-82
2023/01/26 11:06:40;;;;;;;142.10;14.97;;;;;;;;;;5068670;28;20270;-82
2023/01/26 11:09:10;;;;;;;20.10;7.77;;;;;;;;;;5065596;28;20231;-82
2023/01/26 11:11:35;;;;;;;17.83;7.60;;;;;;;;;;5062519;28;20273;-82
2023/01/26 11:14:10;;;;;;;21.47;5.80;;;;;;;;;;5069019;28;20176;-82
2023/01/26 11:16:35;;;;;;;28.60;8.40;;;;;;;;;;5064075;28;20199;-82
2023/01/26 11:19:01;;;;;;;49.13;10.37;;;;;;;;;;5064761;28;20179;-82
2023/01/26 11:21:42;;;;;;;58.70;9.73;;;;;;;;;;5064135;28;20184;-82
2023/01/26 11:24:32;;;;;;;20.17;7.30;;;;;;;;;;5063594;28;20234;-82
2023/01/26 11:26:57;;;;;;;17.17;5.03;;;;;;;;;;5067752;28;20218;-81
2023/01/26 11:29:31;;;;;;;30.40;8.07;;;;;;;;;;5067748;28;20210;-82
2023/01/26 11:32:04;;;;;;;61.30;9.43;;;;;;;;;;5068264;28;20188;-82
2023/01/26 11:34:33;;;;;;;45.13;8.90;;;;;;;;;;5065629;28;20280;-82
2023/01/26 11:37:13;;;;;;;34.07;8.70;;;;;;;;;;5064125;28;20202;-82
2023/01/26 11:40:00;;;;;;;35.70;11.03;;;;;;;;;;5069582;28;20232;-78
2023/01/26 11:43:03;;;;;;;20.83;8.57;;;;;;;;;;5068282;28;20245;-85
2023/01/26 11:45:33;;;;;;;20.00;7.03;;;;;;;;;;4991903;28;20186;-84
2023/01/26 11:48:12;;;;;;;27.93;8.47;;;;;;;;;;5050579;28;20317;-85
2023/01/26 11:50:45;;;;;;;11.03;4.23;;;;;;;;;;5070213;28;20224;-85
2023/01/26 11:53:16;;;;;;;68.07;9.87;;;;;;;;;;5067820;28;20179;-86
2023/01/26 11:56:10;;;;;;;13.13;6.77;;;;;;;;;;5065920;28;20208;-86
2023/01/26 11:58:40;;;;;;;56.40;10.83;;;;;;;;;;5043273;28;20262;-85
2023/01/26 12:01:19;;;;;;;95.97;12.40;;;;;;;;;;5074903;28;20226;-85
2023/01/26 12:03:49;;;;;;;23.73;7.80;;;;;;;;;;5071692;28;20172;-86
2023/01/26 12:06:18;;;;;;;25.80;10.17;;;;;;;;;;5067517;28;20224;-86
2023/01/26 12:09:01;;;;;;;15.23;8.17;;;;;;;;;;5062135;28;20205;-86
2023/01/26 12:11:27;;;;;;;18.57;7.93;;;;;;;;;;5069734;28;20273;-86
2023/01/26 12:14:15;;;;;;;50.25;9.93;;;;;;;;;;5063956;28;20214;-85
2023/01/26 12:16:52;;;;;;;36.13;8.70;;;;;;;;;;5030606;28;20219;-85
2023/01/26 12:19:17;;;;;;;45.63;10.30;;;;;;;;;;5066180;28;20192;-85
2023/01/26 12:21:43;;;;;;;61.53;11.97;;;;;;;;;;5066056;28;20183;-84
2023/01/26 12:24:13;;;;;;;45.00;10.70;;;;;;;;;;5064707;28;20225;-85
2023/01/26 12:26:41;;;;;;;39.63;7.87;;;;;;;;;;5064877;28;20202;-85
2023/01/26 12:29:13;;;;;;;68.90;10.83;;;;;;;;;;5066002;28;20180;-85
2023/01/26 12:31:49;;;;;;;46.83;9.90;;;;;;;;;;5063151;28;20236;-84
2023/01/26 12:34:15;;;;;;;43.57;12.10;;;;;;;;;;5064021;28;20175;-84
2023/01/26 12:36:46;;;;;;;20.20;9.03;;;;;;;;;;5065612;28;20253;-85
2023/01/26 12:39:13;;;;;;;13.20;7.83;;;;;;;;;;5069531;28;20186;-86
2023/01/26 12:41:57;;;;;;;18.63;8.53;;;;;;;;;;5065425;28;20258;-85
2023/01/26 12:44:29;;;;;;;11.13;7.47;;;;;;;;;;5063256;28;20183;-85
2023/01/26 12:46:58;;;;;;;25.57;8.67;;;;;;;;;;5065080;28;20196;-85
2023/01/26 12:49:42;;;;;;;14.97;8.20;;;;;;;;;;5068558;28;20236;-85
2023/01/26 12:52:11;;;;;;;18.20;7.97;;;;;;;;;;5067422;28;20202;-84
2023/01/26 12:54:44;;;;;;;12.03;6.97;;;;;;;;;;5057150;28;20241;-86
2023/01/26 12:57:15;;;;;;;12.63;8.10;;;;;;;;;;5060593;28;20203;-86
2023/01/26 12:59:40;;;;;;;14.80;7.47;;;;;;;;;;5063482;28;20175;-85
2023/01/26 13:02:21;;;;;;;13.13;7.23;;;;;;;;;;5067475;28;20187;-85
2023/01/26 13:04:47;;;;;;;11.97;5.60;;;;;;;;;;5066421;28;20176;-84
2023/01/26 13:07:30;;;;;;;12.63;7.37;;;;;;;;;;5067262;28;20179;-85
2023/01/26 13:10:21;;;;;;;15.83;6.20;;;;;;;;;;5060949;28;20339;-85
2023/01/26 13:12:48;;;;;;;12.30;6.47;;;;;;;;;;5064446;28;20222;-85
2023/01/26 13:15:15;;;;;;;13.10;8.57;;;;;;;;;;5067802;28;20179;-84
2023/01/26 13:17:51;;;;;;;14.53;8.33;;;;;;;;;;5065113;28;20208;-85
2023/01/26 13:20:41;;;;;;;11.00;7.00;;;;;;;;;;5065214;28;20184;-85
2023/01/26 13:23:25;;;;;;;6.90;3.70;;;;;;;;;;5056375;28;20246;-84
2023/01/26 13:26:11;;;;;;;17.87;7.70;;;;;;;;;;5064014;28;20203;-85
2023/01/26 13:28:36;;;;;;;10.57;6.90;;;;;;;;;;5066657;28;20214;-85
2023/01/26 13:31:05;;;;;;;13.37;7.23;;;;;;;;;;5064144;28;20197;-85
2023/01/26 13:33:31;;;;;;;14.00;7.03;;;;;;;;;;5059318;28;20188;-85
2023/01/26 13:35:57;;;;;;;14.17;7.80;;;;;;;;;;5068801;28;20229;-84
2023/01/26 13:38:46;;;;;;;18.00;9.97;;;;;;;;;;5065142;28;20214;-84
2023/01/26 13:41:17;;;;;;;14.67;8.13;;;;;;;;;;5066876;28;20214;-86
2023/01/26 13:43:45;;;;;;;17.70;7.90;;;;;;;;;;5062941;28;20218;-85
2023/01/26 13:46:28;;;;;;;11.73;6.77;;;;;;;;;;5066771;28;20189;-84
2023/01/26 13:48:54;;;;;;;13.27;7.57;;;;;;;;;;5070534;28;20240;-84
2023/01/26 13:51:30;;;;;;;14.83;8.53;;;;;;;;;;5066237;28;20178;-84
2023/01/26 13:53:57;;;;;;;17.30;8.03;;;;;;;;;;5061968;28;20295;-84
2023/01/26 13:56:24;;;;;;;20.03;6.83;;;;;;;;;;5063132;28;20411;-84
2023/01/26 13:58:50;;;;;;;11.67;7.90;;;;;;;;;;5062576;28;20207;-84
2023/01/26 14:01:16;;;;;;;20.57;7.87;;;;;;;;;;5058243;28;20182;-84
2023/01/26 14:03:42;;;;;;;11.23;7.57;;;;;;;;;;5063702;28;20186;-84
2023/01/26 14:06:15;;;;;;;12.83;7.10;;;;;;;;;;5061589;28;20187;-84
2023/01/26 14:08:50;;;;;;;12.70;7.00;;;;;;;;;;5060580;28;20223;-84
2023/01/26 14:11:17;;;;;;;20.83;9.27;;;;;;;;;;5065748;28;20218;-84
2023/01/26 14:13:43;;;;;;;36.40;9.60;;;;;;;;;;5066094;28;20191;-84
2023/01/26 14:16:18;;;;;;;14.20;8.43;;;;;;;;;;5066316;28;20206;-84
2023/01/26 14:18:46;;;;;;;28.47;9.60;;;;;;;;;;5067018;28;20187;-84
2023/01/26 14:21:19;;;;;;;13.53;7.87;;;;;;;;;;5062055;28;20176;-84
2023/01/26 14:23:45;;;;;;;21.27;9.10;;;;;;;;;;5063704;28;20183;-84
2023/01/26 14:26:18;;;;;;;12.03;4.80;;;;;;;;;;5065389;28;20179;-84
2023/01/26 14:28:44;;;;;;;32.00;9.50;;;;;;;;;;5064665;28;20194;-84
2023/01/26 14:31:09;;;;;;;43.13;10.93;;;;;;;;;;5065055;28;20174;-83
2023/01/26 14:33:35;;;;;;;59.93;11.17;;;;;;;;;;5063666;28;20187;-84
2023/01/26 14:36:01;;;;;;;57.03;11.60;;;;;;;;;;5060129;28;20226;-84
2023/01/26 14:38:28;;;;;;;61.13;9.23;;;;;;;;;;5058268;28;20176;-86
2023/01/26 14:40:54;;;;;;;39.70;9.20;;;;;;;;;;5063697;28;20206;-84
2023/01/26 14:43:20;;;;;;;50.67;8.23;;;;;;;;;;5065190;28;20194;-84
2023/01/26 14:45:49;;;;;;;50.97;8.73;;;;;;;;;;5068869;28;20187;-83
2023/01/26 14:48:15;;;;;;;66.40;11.43;;;;;;;;;;5066252;28;20202;-83
2023/01/26 14:50:44;;;;;;;30.60;8.90;;;;;;;;;;5066590;28;20246;-84
2023/01/26 14:53:17;;;;;;;27.50;8.53;;;;;;;;;;5071527;28;20213;-84
2023/01/26 14:55:43;;;;;;;31.93;7.47;;;;;;;;;;5068380;28;20183;-84
2023/01/26 14:58:28;;;;;;;79.43;13.03;;;;;;;;;;5069497;28;20179;-83
2023/01/26 15:00:55;;;;;;;9.83;5.07;;;;;;;;;;5065127;28;20255;-83
2023/01/26 15:03:28;;;;;;;57.67;8.83;;;;;;;;;;5069068;28;20270;-84
2023/01/26 15:06:03;;;;;;;75.27;11.10;;;;;;;;;;5070154;28;20240;-83
2023/01/26 15:08:29;;;;;;;14.00;5.20;;;;;;;;;;5068477;28;20181;-84
2023/01/26 15:13:46;;;;;;;23.00;9.03;;;;;;;;;;5069929;28;20200;-84
2023/01/26 15:16:15;;;;;;;45.40;18.70;;;;;;;;;;5070159;28;20210;-84
2023/01/26 15:18:40;;;;;;;39.10;7.47;;;;;;;;;;5069347;28;20279;-84
2023/01/26 15:21:05;;;;;;;40.97;10.63;;;;;;;;;;5062684;28;20316;-84